createdAt,value
2023-03-05T00:04:56.990Z,0.00
2023-03-05T00:09:57.044Z,0.00
2023-03-05T00:14:56.964Z,0.00
2023-03-05T00:19:56.801Z,0.00
2023-03-05T00:24:56.776Z,0.00
2023-03-05T00:29:56.758Z,0.00
2023-03-05T00:34:56.621Z,0.00
2023-03-05T00:39:56.508Z,0.00
2023-03-05T00:44:56.429Z,0.00
2023-03-05T00:49:56.387Z,0.00
2023-03-05T00:54:56.307Z,0.00
2023-03-05T00:59:56.385Z,0.00
2023-03-05T01:04:56.289Z,0.00
2023-03-05T01:09:56.444Z,0.00
2023-03-05T01:14:56.240Z,0.00
2023-03-05T01:19:56.237Z,0.00
2023-03-05T01:24:56.032Z,0.00
2023-03-05T01:29:55.918Z,0.00
2023-03-05T01:34:55.877Z,0.00
2023-03-05T01:39:55.849Z,0.00
2023-03-05T01:44:56.890Z,0.00
2023-03-05T01:49:57.086Z,0.00
2023-03-05T01:54:55.553Z,0.00
2023-03-05T01:59:55.425Z,0.00
2023-03-05T02:04:55.410Z,0.00
2023-03-05T02:09:55.293Z,0.00
2023-03-05T02:14:55.256Z,0.00
2023-03-05T02:19:55.174Z,0.00
2023-03-05T02:24:55.140Z,0.00
2023-03-05T02:29:55.054Z,0.00
2023-03-05T02:34:55.014Z,0.00
2023-03-05T02:39:54.932Z,0.00
2023-03-05T02:44:54.882Z,0.00
2023-03-05T02:49:54.797Z,0.00
2023-03-05T02:54:54.769Z,0.00
2023-03-05T02:59:54.745Z,0.00
2023-03-05T03:04:54.654Z,0.00
2023-03-05T03:09:54.589Z,0.00
2023-03-05T03:14:54.457Z,0.00
2023-03-05T03:19:54.399Z,0.00
2023-03-05T03:24:54.370Z,0.00
2023-03-05T03:29:54.300Z,0.00
2023-03-05T03:34:54.201Z,0.00
2023-03-05T03:39:54.238Z,0.00
2023-03-05T03:44:54.096Z,0.00
2023-03-05T03:49:54.019Z,0.00
2023-03-05T03:54:54.011Z,0.00
2023-03-05T03:59:53.924Z,0.00
2023-03-05T04:04:53.820Z,0.00
2023-03-05T04:09:53.835Z,0.00
2023-03-05T04:14:53.885Z,0.00
2023-03-05T04:19:53.675Z,0.00
2023-03-05T04:24:53.681Z,0.00
2023-03-05T04:29:53.551Z,0.00
2023-03-05T04:34:53.464Z,0.00
2023-03-05T04:39:53.422Z,0.00
2023-03-05T04:44:53.347Z,0.00
2023-03-05T04:49:53.268Z,0.00
2023-03-05T04:54:53.284Z,0.00
2023-03-05T04:59:53.130Z,0.00
2023-03-05T05:04:53.041Z,0.00
2023-03-05T05:09:53.023Z,0.00
2023-03-05T05:14:52.973Z,0.00
2023-03-05T05:19:52.848Z,8.00
2023-03-05T05:24:52.801Z,16.00
2023-03-05T05:29:52.762Z,52.00
2023-03-05T05:34:52.682Z,72.00
2023-03-05T05:39:52.613Z,136.00
2023-03-05T05:44:52.544Z,208.00
2023-03-05T05:49:52.460Z,260.00
2023-03-05T05:54:52.426Z,340.00
2023-03-05T05:59:52.372Z,492.00
2023-03-05T06:04:52.308Z,668.00
2023-03-05T06:09:52.199Z,1048.00
2023-03-05T06:14:52.141Z,1284.00
2023-03-05T06:19:52.133Z,1064.00
2023-03-05T06:24:52.043Z,1264.00
2023-03-05T06:29:51.955Z,1424.00
2023-03-05T06:34:51.897Z,2336.00
2023-03-05T06:39:51.831Z,2176.00
2023-03-05T06:44:51.736Z,1992.00
2023-03-05T06:49:51.729Z,1900.00
2023-03-05T06:54:51.635Z,3572.00
2023-03-05T06:59:51.547Z,3292.00
2023-03-05T07:04:51.550Z,3380.00
2023-03-05T07:09:51.426Z,2444.00
2023-03-05T07:14:51.380Z,1840.00
2023-03-05T07:19:51.344Z,1752.00
2023-03-05T07:24:51.231Z,1744.00
2023-03-05T07:29:51.242Z,1764.00
2023-03-05T07:34:51.139Z,1480.00
2023-03-05T07:39:51.104Z,1844.00
2023-03-05T07:44:50.978Z,3408.00
2023-03-05T07:49:50.979Z,3648.00
2023-03-05T07:54:50.907Z,2332.00
2023-03-05T07:59:50.815Z,2324.00
2023-03-05T08:04:50.745Z,3664.00
2023-03-05T08:09:50.863Z,3044.00
2023-03-05T08:14:50.630Z,2280.00
2023-03-05T08:19:50.613Z,2996.00
2023-03-05T08:24:50.522Z,5112.00
2023-03-05T08:29:50.393Z,11996.00
2023-03-05T08:34:50.366Z,20448.00
2023-03-05T08:39:50.276Z,31264.00
2023-03-05T08:44:50.587Z,9528.00
2023-03-05T08:49:50.121Z,8420.00
2023-03-05T08:54:50.110Z,11124.00
2023-03-05T08:59:50.056Z,7540.00
2023-03-05T09:04:50.021Z,5844.00
2023-03-05T09:09:49.904Z,4652.00
2023-03-05T09:14:49.889Z,4960.00
2023-03-05T09:19:49.768Z,5480.00
2023-03-05T09:24:49.704Z,3684.00
2023-03-05T09:29:49.638Z,4084.00
2023-03-05T09:34:49.542Z,2984.00
2023-03-05T09:39:49.535Z,3160.00
2023-03-05T09:44:49.439Z,6124.00
2023-03-05T09:49:49.354Z,5320.00
2023-03-05T09:54:49.323Z,9552.00
2023-03-05T09:59:49.236Z,11532.00
2023-03-05T10:04:49.146Z,8164.00
2023-03-05T10:09:49.150Z,6296.00
2023-03-05T10:14:49.067Z,3268.00
2023-03-05T10:19:49.055Z,3312.00
2023-03-05T10:24:48.929Z,5556.00
2023-03-05T10:29:49.188Z,6196.00
2023-03-05T10:34:48.833Z,4028.00
2023-03-05T10:39:48.789Z,8692.00
2023-03-05T10:44:48.755Z,9836.00
2023-03-05T10:49:48.566Z,8344.00
2023-03-05T10:54:48.533Z,9788.00
2023-03-05T10:59:48.453Z,7292.00
2023-03-05T11:04:48.392Z,6776.00
2023-03-05T11:09:48.353Z,7492.00
2023-03-05T11:14:48.280Z,8932.00
2023-03-05T11:19:48.262Z,10024.00
2023-03-05T11:24:48.293Z,8880.00
2023-03-05T11:29:48.050Z,9824.00
2023-03-05T11:34:48.042Z,8780.00
2023-03-05T11:39:47.897Z,8508.00
2023-03-05T11:44:47.909Z,9284.00
2023-03-05T11:49:47.845Z,9880.00
2023-03-05T11:54:47.746Z,8728.00
2023-03-05T11:59:47.697Z,8452.00
2023-03-05T12:04:47.694Z,7384.00
2023-03-05T12:09:47.517Z,4144.00
2023-03-05T12:14:48.009Z,6240.00
2023-03-05T12:19:47.404Z,6496.00
2023-03-05T12:24:47.481Z,5080.00
2023-03-05T12:29:47.265Z,4392.00
2023-03-05T12:34:47.187Z,5368.00
2023-03-05T12:39:47.170Z,5560.00
2023-03-05T12:44:47.076Z,4108.00
2023-03-05T12:49:47.031Z,3744.00
2023-03-05T12:54:46.948Z,2592.00
2023-03-05T12:59:46.873Z,2720.00
2023-03-05T13:04:46.835Z,3744.00
2023-03-05T13:09:46.795Z,7416.00
2023-03-05T13:14:46.665Z,7576.00
2023-03-05T13:19:46.605Z,5572.00
2023-03-05T13:24:46.527Z,4540.00
2023-03-05T13:29:46.497Z,3548.00
2023-03-05T13:34:47.985Z,2984.00
2023-03-05T13:39:46.378Z,2404.00
2023-03-05T13:44:46.265Z,2596.00
2023-03-05T13:49:46.216Z,2276.00
2023-03-05T13:54:46.172Z,1656.00
2023-03-05T13:59:46.089Z,1288.00
2023-03-05T14:04:46.179Z,1260.00
2023-03-05T14:09:45.968Z,1408.00
2023-03-05T14:14:45.903Z,868.00
2023-03-05T14:19:45.827Z,600.00
2023-03-05T14:24:45.803Z,2216.00
2023-03-05T14:29:45.693Z,3232.00
2023-03-05T14:34:45.696Z,2256.00
2023-03-05T14:39:46.661Z,2348.00
2023-03-05T14:44:45.545Z,2024.00
2023-03-05T14:49:45.564Z,1232.00
2023-03-05T14:54:45.528Z,988.00
2023-03-05T14:59:45.404Z,756.00
2023-03-05T15:04:45.468Z,984.00
2023-03-05T15:09:46.045Z,1380.00
2023-03-05T15:14:45.504Z,1028.00
2023-03-05T15:20:01.770Z,1212.00
2023-03-05T15:24:45.219Z,1756.00
2023-03-05T15:29:45.144Z,2024.00
2023-03-05T15:34:44.896Z,1620.00
2023-03-05T15:39:44.934Z,1444.00
2023-03-05T15:44:44.866Z,1176.00
2023-03-05T15:49:44.862Z,1052.00
2023-03-05T15:54:47.492Z,780.00
2023-03-05T15:59:45.029Z,888.00
2023-03-05T16:04:44.847Z,852.00
2023-03-05T16:09:44.842Z,1048.00
2023-03-05T16:14:44.551Z,1036.00
2023-03-05T16:19:54.418Z,888.00
2023-03-05T16:24:44.320Z,600.00
2023-03-05T16:29:44.564Z,388.00
2023-03-05T16:34:44.262Z,284.00
2023-03-05T16:39:44.110Z,204.00
2023-03-05T16:44:44.326Z,112.00
2023-03-05T16:49:44.146Z,72.00
2023-03-05T16:54:43.832Z,44.00
2023-03-05T16:59:43.911Z,24.00
2023-03-05T17:04:43.970Z,12.00
2023-03-05T17:09:43.699Z,8.00
2023-03-05T17:14:44.047Z,0.00
2023-03-05T17:19:43.502Z,0.00
2023-03-05T17:24:43.875Z,0.00
2023-03-05T17:29:43.994Z,0.00
2023-03-05T17:34:43.582Z,0.00
2023-03-05T17:39:51.082Z,0.00
2023-03-05T17:44:43.217Z,0.00
2023-03-05T17:49:43.307Z,0.00
2023-03-05T17:54:43.105Z,0.00
2023-03-05T17:59:44.400Z,0.00
2023-03-05T18:04:43.173Z,0.00
2023-03-05T18:09:42.966Z,0.00
2023-03-05T18:14:43.107Z,0.00
2023-03-05T18:19:42.853Z,0.00
2023-03-05T18:24:43.032Z,0.00
2023-03-05T18:29:43.264Z,0.00
2023-03-05T18:34:42.603Z,0.00
2023-03-05T18:39:42.480Z,0.00
2023-03-05T18:44:42.437Z,0.00
2023-03-05T18:49:42.363Z,0.00
2023-03-05T18:54:42.352Z,0.00
2023-03-05T18:59:42.359Z,0.00
2023-03-05T19:04:42.302Z,0.00
2023-03-05T19:09:42.213Z,0.00
2023-03-05T19:14:42.174Z,0.00
2023-03-05T19:19:42.764Z,0.00
2023-03-05T19:24:42.058Z,0.00
2023-03-05T19:29:42.093Z,0.00
2023-03-05T19:34:41.824Z,0.00
2023-03-05T19:39:41.756Z,0.00
2023-03-05T19:44:41.795Z,0.00
2023-03-05T19:49:41.651Z,0.00
2023-03-05T19:54:42.763Z,0.00
2023-03-05T19:59:41.540Z,0.00
2023-03-05T20:04:41.571Z,0.00
2023-03-05T20:09:41.424Z,0.00
2023-03-05T20:14:41.339Z,0.00
2023-03-05T20:19:41.282Z,0.00
2023-03-05T20:24:41.281Z,0.00
2023-03-05T20:29:41.078Z,0.00
2023-03-05T20:34:43.416Z,0.00
2023-03-05T20:39:42.050Z,0.00
2023-03-05T20:44:41.432Z,0.00
2023-03-05T20:49:40.882Z,0.00
2023-03-05T20:54:40.930Z,0.00
2023-03-05T20:59:40.850Z,0.00
2023-03-05T21:04:40.887Z,0.00
2023-03-05T21:09:40.675Z,0.00
2023-03-05T21:14:40.564Z,0.00
2023-03-05T21:19:40.451Z,0.00
2023-03-05T21:24:40.424Z,0.00
2023-03-05T21:29:40.316Z,0.00
2023-03-05T21:34:40.265Z,0.00
2023-03-05T21:39:40.308Z,0.00
2023-03-05T21:44:40.136Z,0.00
2023-03-05T21:49:40.168Z,0.00
2023-03-05T21:54:40.087Z,0.00
2023-03-05T21:59:40.008Z,0.00
2023-03-05T22:04:39.936Z,0.00
2023-03-05T22:09:39.909Z,0.00
2023-03-05T22:14:39.821Z,0.00
2023-03-05T22:19:39.697Z,0.00
2023-03-05T22:24:39.598Z,0.00
2023-03-05T22:29:39.556Z,0.00
2023-03-05T22:34:39.491Z,0.00
2023-03-05T22:39:39.480Z,0.00
2023-03-05T22:44:40.256Z,0.00
2023-03-05T22:49:39.471Z,0.00
2023-03-05T22:54:39.218Z,0.00
2023-03-05T22:59:39.208Z,0.00
2023-03-05T23:04:39.160Z,0.00
2023-03-05T23:09:39.066Z,0.00
2023-03-05T23:14:39.014Z,0.00
2023-03-05T23:19:39.756Z,0.00
2023-03-05T23:24:38.934Z,0.00
2023-03-05T23:29:38.791Z,0.00
2023-03-05T23:34:38.752Z,0.00
2023-03-05T23:39:38.702Z,0.00
2023-03-05T23:44:38.645Z,0.00
2023-03-05T23:49:38.601Z,0.00
2023-03-05T23:54:38.496Z,0.00
2023-03-05T23:59:38.415Z,0.00
